sensor_id;sensor_type;location;lat;lon;timestamp;P1;P2;P0
81989;PMS5003;71485;51.638;-0.182;2024-03-07T00:01:53;8;7;
81989;PMS5003;71485;51.638;-0.182;2024-03-07T00:04:18;6;6;
81989;PMS5003;71485;51.638;-0.182;2024-03-07T00:06:45;10;9;
81989;PMS5003;71485;51.638;-0.182;2024-03-07T00:09:09;5;5;
81989;PMS5003;71485;51.638;-0.182;2024-03-07T00:11:35;6;6;
81989;PMS5003;71485;51.638;-0.182;2024-03-07T00:14:00;6;6;
81989;PMS5003;71485;51.638;-0.182;2024-03-07T00:16:26;8;8;
81989;PMS5003;71485;51.638;-0.182;2024-03-07T00:18:52;6;6;
81989;PMS5003;71485;51.638;-0.182;2024-03-07T00:21:17;6;6;
81989;PMS5003;71485;51.638;-0.182;2024-03-07T00:23:43;8;7;
81989;PMS5003;71485;51.638;-0.182;2024-03-07T00:26:10;6;6;
81989;PMS5003;71485;51.638;-0.182;2024-03-07T00:28:35;7;7;
81989;PMS5003;71485;51.638;-0.182;2024-03-07T00:30:59;8;7;
81989;PMS5003;71485;51.638;-0.182;2024-03-07T00:33:25;7;7;
81989;PMS5003;71485;51.638;-0.182;2024-03-07T00:35:51;6;6;
81989;PMS5003;71485;51.638;-0.182;2024-03-07T00:38:17;8;7;
81989;PMS5003;71485;51.638;-0.182;2024-03-07T00:40:42;7;7;
81989;PMS5003;71485;51.638;-0.182;2024-03-07T00:43:08;7;6;
81989;PMS5003;71485;51.638;-0.182;2024-03-07T00:45:33;10;9;
81989;PMS5003;71485;51.638;-0.182;2024-03-07T00:47:59;7;6;
81989;PMS5003;71485;51.638;-0.182;2024-03-07T00:50:27;7;7;
81989;PMS5003;71485;51.638;-0.182;2024-03-07T00:52:55;8;8;
81989;PMS5003;71485;51.638;-0.182;2024-03-07T00:55:16;6;6;
81989;PMS5003;71485;51.638;-0.182;2024-03-07T00:57:42;9;6;
81989;PMS5003;71485;51.638;-0.182;2024-03-07T01:00:07;8;8;
81989;PMS5003;71485;51.638;-0.182;2024-03-07T01:02:33;7;7;
81989;PMS5003;71485;51.638;-0.182;2024-03-07T01:04:58;6;6;
81989;PMS5003;71485;51.638;-0.182;2024-03-07T01:07:24;5;5;
81989;PMS5003;71485;51.638;-0.182;2024-03-07T01:09:49;6;6;
81989;PMS5003;71485;51.638;-0.182;2024-03-07T01:12:16;7;7;
81989;PMS5003;71485;51.638;-0.182;2024-03-07T01:14:40;8;7;
81989;PMS5003;71485;51.638;-0.182;2024-03-07T01:17:07;8;8;
81989;PMS5003;71485;51.638;-0.182;2024-03-07T01:19:32;6;6;
81989;PMS5003;71485;51.638;-0.182;2024-03-07T01:21:57;8;8;
81989;PMS5003;71485;51.638;-0.182;2024-03-07T01:24:25;6;5;
81989;PMS5003;71485;51.638;-0.182;2024-03-07T01:26:49;7;6;
81989;PMS5003;71485;51.638;-0.182;2024-03-07T01:29:14;6;6;
81989;PMS5003;71485;51.638;-0.182;2024-03-07T01:31:40;9;9;
81989;PMS5003;71485;51.638;-0.182;2024-03-07T01:34:10;6;6;
81989;PMS5003;71485;51.638;-0.182;2024-03-07T01:36:31;7;7;
81989;PMS5003;71485;51.638;-0.182;2024-03-07T01:38:57;7;7;
81989;PMS5003;71485;51.638;-0.182;2024-03-07T01:41:22;5;5;
81989;PMS5003;71485;51.638;-0.182;2024-03-07T01:43:48;5;5;
81989;PMS5003;71485;51.638;-0.182;2024-03-07T01:46:13;6;6;
81989;PMS5003;71485;51.638;-0.182;2024-03-07T01:48:39;5;5;
81989;PMS5003;71485;51.638;-0.182;2024-03-07T01:51:09;6;6;
81989;PMS5003;71485;51.638;-0.182;2024-03-07T01:53:32;6;6;
81989;PMS5003;71485;51.638;-0.182;2024-03-07T01:55:56;8;8;
81989;PMS5003;71485;51.638;-0.182;2024-03-07T01:58:21;9;8;
81989;PMS5003;71485;51.638;-0.182;2024-03-07T02:00:47;7;5;
81989;PMS5003;71485;51.638;-0.182;2024-03-07T02:03:13;6;6;
81989;PMS5003;71485;51.638;-0.182;2024-03-07T02:05:38;7;7;
81989;PMS5003;71485;51.638;-0.182;2024-03-07T02:08:04;5;5;
81989;PMS5003;71485;51.638;-0.182;2024-03-07T02:10:30;7;7;
81989;PMS5003;71485;51.638;-0.182;2024-03-07T02:12:55;7;7;
81989;PMS5003;71485;51.638;-0.182;2024-03-07T02:15:21;7;7;
81989;PMS5003;71485;51.638;-0.182;2024-03-07T02:17:46;6;6;
81989;PMS5003;71485;51.638;-0.182;2024-03-07T02:20:12;8;7;
81989;PMS5003;71485;51.638;-0.182;2024-03-07T02:22:40;7;7;
81989;PMS5003;71485;51.638;-0.182;2024-03-07T02:25:08;6;6;
81989;PMS5003;71485;51.638;-0.182;2024-03-07T02:27:29;8;8;
81989;PMS5003;71485;51.638;-0.182;2024-03-07T02:29:54;6;6;
81989;PMS5003;71485;51.638;-0.182;2024-03-07T02:32:19;6;6;
81989;PMS5003;71485;51.638;-0.182;2024-03-07T02:34:45;6;6;
81989;PMS5003;71485;51.638;-0.182;2024-03-07T02:37:11;6;6;
81989;PMS5003;71485;51.638;-0.182;2024-03-07T02:39:37;6;6;
81989;PMS5003;71485;51.638;-0.182;2024-03-07T02:42:02;6;6;
81989;PMS5003;71485;51.638;-0.182;2024-03-07T02:44:28;7;7;
81989;PMS5003;71485;51.638;-0.182;2024-03-07T02:46:53;6;6;
81989;PMS5003;71485;51.638;-0.182;2024-03-07T02:49:19;6;6;
81989;PMS5003;71485;51.638;-0.182;2024-03-07T02:51:45;6;6;
81989;PMS5003;71485;51.638;-0.182;2024-03-07T02:54:11;6;6;
81989;PMS5003;71485;51.638;-0.182;2024-03-07T02:56:36;5;5;
81989;PMS5003;71485;51.638;-0.182;2024-03-07T02:59:01;6;6;
81989;PMS5003;71485;51.638;-0.182;2024-03-07T03:01:30;8;8;
81989;PMS5003;71485;51.638;-0.182;2024-03-07T03:03:53;6;6;
81989;PMS5003;71485;51.638;-0.182;2024-03-07T03:06:20;5;5;
81989;PMS5003;71485;51.638;-0.182;2024-03-07T03:08:44;6;6;
81989;PMS5003;71485;51.638;-0.182;2024-03-07T03:11:11;6;6;
81989;PMS5003;71485;51.638;-0.182;2024-03-07T03:13:37;5;5;
81989;PMS5003;71485;51.638;-0.182;2024-03-07T03:16:01;6;6;
81989;PMS5003;71485;51.638;-0.182;2024-03-07T03:18:27;6;6;
81989;PMS5003;71485;51.638;-0.182;2024-03-07T03:20:52;5;5;
81989;PMS5003;71485;51.638;-0.182;2024-03-07T03:23:18;4;4;
81989;PMS5003;71485;51.638;-0.182;2024-03-07T03:25:45;5;5;
81989;PMS5003;71485;51.638;-0.182;2024-03-07T03:28:09;5;5;
81989;PMS5003;71485;51.638;-0.182;2024-03-07T03:30:37;6;5;
81989;PMS5003;71485;51.638;-0.182;2024-03-07T03:33:00;8;8;
81989;PMS5003;71485;51.638;-0.182;2024-03-07T03:35:26;5;5;
81989;PMS5003;71485;51.638;-0.182;2024-03-07T03:37:52;5;5;
81989;PMS5003;71485;51.638;-0.182;2024-03-07T03:40:21;8;7;
81989;PMS5003;71485;51.638;-0.182;2024-03-07T03:42:43;6;5;
81989;PMS5003;71485;51.638;-0.182;2024-03-07T03:45:09;6;6;
81989;PMS5003;71485;51.638;-0.182;2024-03-07T03:47:34;5;5;
81989;PMS5003;71485;51.638;-0.182;2024-03-07T03:50:01;4;4;
81989;PMS5003;71485;51.638;-0.182;2024-03-07T03:52:27;8;8;
81989;PMS5003;71485;51.638;-0.182;2024-03-07T03:54:51;5;5;
81989;PMS5003;71485;51.638;-0.182;2024-03-07T03:57:17;9;8;
81989;PMS5003;71485;51.638;-0.182;2024-03-07T03:59:42;5;5;
81989;PMS5003;71485;51.638;-0.182;2024-03-07T04:02:08;6;5;
81989;PMS5003;71485;51.638;-0.182;2024-03-07T04:04:39;6;6;
81989;PMS5003;71485;51.638;-0.182;2024-03-07T04:07:00;7;7;
81989;PMS5003;71485;51.638;-0.182;2024-03-07T04:09:26;7;7;
81989;PMS5003;71485;51.638;-0.182;2024-03-07T04:11:51;8;6;
81989;PMS5003;71485;51.638;-0.182;2024-03-07T04:14:16;5;5;
81989;PMS5003;71485;51.638;-0.182;2024-03-07T04:16:42;6;6;
81989;PMS5003;71485;51.638;-0.182;2024-03-07T04:19:07;7;7;
81989;PMS5003;71485;51.638;-0.182;2024-03-07T04:21:33;4;4;
81989;PMS5003;71485;51.638;-0.182;2024-03-07T04:23:59;7;7;
81989;PMS5003;71485;51.638;-0.182;2024-03-07T04:26:25;5;5;
81989;PMS5003;71485;51.638;-0.182;2024-03-07T04:28:50;5;5;
81989;PMS5003;71485;51.638;-0.182;2024-03-07T04:31:15;7;6;
81989;PMS5003;71485;51.638;-0.182;2024-03-07T04:33:41;6;6;
81989;PMS5003;71485;51.638;-0.182;2024-03-07T04:36:08;7;7;
81989;PMS5003;71485;51.638;-0.182;2024-03-07T04:38:34;6;6;
81989;PMS5003;71485;51.638;-0.182;2024-03-07T04:40:58;6;6;
81989;PMS5003;71485;51.638;-0.182;2024-03-07T04:43:24;5;5;
81989;PMS5003;71485;51.638;-0.182;2024-03-07T04:45:49;8;8;
81989;PMS5003;71485;51.638;-0.182;2024-03-07T04:48:16;8;7;
81989;PMS5003;71485;51.638;-0.182;2024-03-07T04:50:41;6;6;
81989;PMS5003;71485;51.638;-0.182;2024-03-07T04:53:09;10;9;
81989;PMS5003;71485;51.638;-0.182;2024-03-07T04:55:32;7;7;
81989;PMS5003;71485;51.638;-0.182;2024-03-07T04:57:57;7;7;
81989;PMS5003;71485;51.638;-0.182;2024-03-07T05:00:23;8;8;
81989;PMS5003;71485;51.638;-0.182;2024-03-07T05:02:49;7;7;
81989;PMS5003;71485;51.638;-0.182;2024-03-07T05:05:16;8;8;
81989;PMS5003;71485;51.638;-0.182;2024-03-07T05:07:42;7;7;
81989;PMS5003;71485;51.638;-0.182;2024-03-07T05:10:07;8;8;
81989;PMS5003;71485;51.638;-0.182;2024-03-07T05:12:32;6;6;
81989;PMS5003;71485;51.638;-0.182;2024-03-07T05:14:57;7;7;
81989;PMS5003;71485;51.638;-0.182;2024-03-07T05:17:23;6;6;
81989;PMS5003;71485;51.638;-0.182;2024-03-07T05:19:48;9;9;
81989;PMS5003;71485;51.638;-0.182;2024-03-07T05:22:14;7;7;
81989;PMS5003;71485;51.638;-0.182;2024-03-07T05:24:43;7;7;
81989;PMS5003;71485;51.638;-0.182;2024-03-07T05:27:06;7;7;
81989;PMS5003;71485;51.638;-0.182;2024-03-07T05:29:31;8;7;
81989;PMS5003;71485;51.638;-0.182;2024-03-07T05:32:17;9;9;
81989;PMS5003;71485;51.638;-0.182;2024-03-07T05:34:22;8;8;
81989;PMS5003;71485;51.638;-0.182;2024-03-07T05:36:49;9;9;
81989;PMS5003;71485;51.638;-0.182;2024-03-07T05:39:17;9;8;
81989;PMS5003;71485;51.638;-0.182;2024-03-07T05:41:39;8;7;
81989;PMS5003;71485;51.638;-0.182;2024-03-07T05:44:05;7;7;
81989;PMS5003;71485;51.638;-0.182;2024-03-07T05:46:30;8;7;
81989;PMS5003;71485;51.638;-0.182;2024-03-07T05:48:57;8;8;
81989;PMS5003;71485;51.638;-0.182;2024-03-07T05:51:22;7;7;
81989;PMS5003;71485;51.638;-0.182;2024-03-07T05:53:47;6;6;
81989;PMS5003;71485;51.638;-0.182;2024-03-07T05:56:12;7;7;
81989;PMS5003;71485;51.638;-0.182;2024-03-07T05:58:43;7;7;
81989;PMS5003;71485;51.638;-0.182;2024-03-07T06:01:04;7;7;
81989;PMS5003;71485;51.638;-0.182;2024-03-07T06:03:29;8;6;
81989;PMS5003;71485;51.638;-0.182;2024-03-07T06:05:55;6;6;
81989;PMS5003;71485;51.638;-0.182;2024-03-07T06:08:21;7;7;
81989;PMS5003;71485;51.638;-0.182;2024-03-07T06:10:48;9;8;
81989;PMS5003;71485;51.638;-0.182;2024-03-07T06:13:13;7;7;
81989;PMS5003;71485;51.638;-0.182;2024-03-07T06:15:38;7;7;
81989;PMS5003;71485;51.638;-0.182;2024-03-07T06:18:03;8;8;
81989;PMS5003;71485;51.638;-0.182;2024-03-07T06:20:29;6;6;
81989;PMS5003;71485;51.638;-0.182;2024-03-07T06:22:56;7;7;
81989;PMS5003;71485;51.638;-0.182;2024-03-07T06:25:21;7;7;
81989;PMS5003;71485;51.638;-0.182;2024-03-07T06:27:46;6;6;
81989;PMS5003;71485;51.638;-0.182;2024-03-07T06:30:12;5;5;
81989;PMS5003;71485;51.638;-0.182;2024-03-07T06:32:37;8;7;
81989;PMS5003;71485;51.638;-0.182;2024-03-07T06:35:04;6;6;
81989;PMS5003;71485;51.638;-0.182;2024-03-07T06:37:28;6;6;
81989;PMS5003;71485;51.638;-0.182;2024-03-07T06:39:55;6;6;
81989;PMS5003;71485;51.638;-0.182;2024-03-07T06:42:20;7;7;
81989;PMS5003;71485;51.638;-0.182;2024-03-07T06:44:46;8;8;
81989;PMS5003;71485;51.638;-0.182;2024-03-07T06:47:11;8;8;
81989;PMS5003;71485;51.638;-0.182;2024-03-07T06:49:38;7;7;
81989;PMS5003;71485;51.638;-0.182;2024-03-07T06:52:03;8;8;
81989;PMS5003;71485;51.638;-0.182;2024-03-07T06:54:28;8;7;
81989;PMS5003;71485;51.638;-0.182;2024-03-07T06:56:53;6;6;
81989;PMS5003;71485;51.638;-0.182;2024-03-07T06:59:19;10;8;
81989;PMS5003;71485;51.638;-0.182;2024-03-07T07:01:45;9;9;
81989;PMS5003;71485;51.638;-0.182;2024-03-07T07:04:13;7;7;
81989;PMS5003;71485;51.638;-0.182;2024-03-07T07:06:36;7;7;
81989;PMS5003;71485;51.638;-0.182;2024-03-07T07:09:02;8;8;
81989;PMS5003;71485;51.638;-0.182;2024-03-07T07:11:31;10;10;
81989;PMS5003;71485;51.638;-0.182;2024-03-07T07:13:54;9;9;
81989;PMS5003;71485;51.638;-0.182;2024-03-07T07:16:18;8;8;
81989;PMS5003;71485;51.638;-0.182;2024-03-07T07:18:44;9;9;
81989;PMS5003;71485;51.638;-0.182;2024-03-07T07:21:12;10;10;
81989;PMS5003;71485;51.638;-0.182;2024-03-07T07:23:35;10;8;
81989;PMS5003;71485;51.638;-0.182;2024-03-07T07:26:04;10;10;
81989;PMS5003;71485;51.638;-0.182;2024-03-07T07:28:27;10;10;
81989;PMS5003;71485;51.638;-0.182;2024-03-07T07:30:52;7;7;
81989;PMS5003;71485;51.638;-0.182;2024-03-07T07:33:18;7;7;
81989;PMS5003;71485;51.638;-0.182;2024-03-07T07:35:43;9;9;
81989;PMS5003;71485;51.638;-0.182;2024-03-07T07:38:14;9;9;
81989;PMS5003;71485;51.638;-0.182;2024-03-07T07:40:35;7;7;
81989;PMS5003;71485;51.638;-0.182;2024-03-07T07:43:00;8;8;
81989;PMS5003;71485;51.638;-0.182;2024-03-07T07:45:25;10;10;
81989;PMS5003;71485;51.638;-0.182;2024-03-07T07:47:53;10;10;
81989;PMS5003;71485;51.638;-0.182;2024-03-07T07:50:21;8;8;
81989;PMS5003;71485;51.638;-0.182;2024-03-07T07:52:44;10;10;
81989;PMS5003;71485;51.638;-0.182;2024-03-07T07:55:08;10;10;
81989;PMS5003;71485;51.638;-0.182;2024-03-07T07:57:34;10;9;
81989;PMS5003;71485;51.638;-0.182;2024-03-07T08:00:01;14;14;
81989;PMS5003;71485;51.638;-0.182;2024-03-07T08:02:25;21;20;
81989;PMS5003;71485;51.638;-0.182;2024-03-07T08:04:50;19;19;
81989;PMS5003;71485;51.638;-0.182;2024-03-07T08:07:17;24;22;
81989;PMS5003;71485;51.638;-0.182;2024-03-07T08:09:42;28;25;
81989;PMS5003;71485;51.638;-0.182;2024-03-07T08:12:10;22;22;
81989;PMS5003;71485;51.638;-0.182;2024-03-07T08:14:33;24;24;
81989;PMS5003;71485;51.638;-0.182;2024-03-07T08:16:59;26;26;
81989;PMS5003;71485;51.638;-0.182;2024-03-07T08:19:24;25;23;
81989;PMS5003;71485;51.638;-0.182;2024-03-07T08:21:48;23;22;
81989;PMS5003;71485;51.638;-0.182;2024-03-07T08:24:13;21;20;
81989;PMS5003;71485;51.638;-0.182;2024-03-07T08:26:39;23;23;
81989;PMS5003;71485;51.638;-0.182;2024-03-07T08:29:04;21;21;
81989;PMS5003;71485;51.638;-0.182;2024-03-07T08:31:29;24;23;
81989;PMS5003;71485;51.638;-0.182;2024-03-07T08:33:55;23;23;
81989;PMS5003;71485;51.638;-0.182;2024-03-07T08:36:21;26;24;
81989;PMS5003;71485;51.638;-0.182;2024-03-07T08:38:45;26;25;
81989;PMS5003;71485;51.638;-0.182;2024-03-07T08:41:10;21;21;
81989;PMS5003;71485;51.638;-0.182;2024-03-07T08:43:35;22;22;
81989;PMS5003;71485;51.638;-0.182;2024-03-07T08:46:01;19;19;
81989;PMS5003;71485;51.638;-0.182;2024-03-07T08:48:26;22;21;
81989;PMS5003;71485;51.638;-0.182;2024-03-07T08:50:52;21;20;
81989;PMS5003;71485;51.638;-0.182;2024-03-07T08:53:18;24;22;
81989;PMS5003;71485;51.638;-0.182;2024-03-07T08:55:42;20;20;
81989;PMS5003;71485;51.638;-0.182;2024-03-07T08:58:07;19;17;
81989;PMS5003;71485;51.638;-0.182;2024-03-07T09:00:33;18;18;
81989;PMS5003;71485;51.638;-0.182;2024-03-07T09:02:59;24;21;
81989;PMS5003;71485;51.638;-0.182;2024-03-07T09:05:24;20;18;
81989;PMS5003;71485;51.638;-0.182;2024-03-07T09:07:50;25;23;
81989;PMS5003;71485;51.638;-0.182;2024-03-07T09:10:16;22;22;
81989;PMS5003;71485;51.638;-0.182;2024-03-07T09:12:40;26;25;
81989;PMS5003;71485;51.638;-0.182;2024-03-07T09:15:05;23;22;
81989;PMS5003;71485;51.638;-0.182;2024-03-07T09:17:30;19;19;
81989;PMS5003;71485;51.638;-0.182;2024-03-07T09:19:55;26;24;
81989;PMS5003;71485;51.638;-0.182;2024-03-07T09:22:21;30;26;
81989;PMS5003;71485;51.638;-0.182;2024-03-07T09:24:48;22;22;
81989;PMS5003;71485;51.638;-0.182;2024-03-07T09:27:13;30;26;
81989;PMS5003;71485;51.638;-0.182;2024-03-07T09:29:37;23;22;
81989;PMS5003;71485;51.638;-0.182;2024-03-07T09:32:02;25;25;
81989;PMS5003;71485;51.638;-0.182;2024-03-07T09:34:28;23;21;
81989;PMS5003;71485;51.638;-0.182;2024-03-07T09:36:53;23;22;
81989;PMS5003;71485;51.638;-0.182;2024-03-07T09:39:19;22;21;
81989;PMS5003;71485;51.638;-0.182;2024-03-07T09:41:44;21;21;
81989;PMS5003;71485;51.638;-0.182;2024-03-07T09:44:09;23;23;
81989;PMS5003;71485;51.638;-0.182;2024-03-07T09:46:35;22;21;
81989;PMS5003;71485;51.638;-0.182;2024-03-07T09:49:03;23;22;
81989;PMS5003;71485;51.638;-0.182;2024-03-07T09:51:28;18;18;
81989;PMS5003;71485;51.638;-0.182;2024-03-07T09:53:53;27;23;
81989;PMS5003;71485;51.638;-0.182;2024-03-07T09:56:21;26;26;
81989;PMS5003;71485;51.638;-0.182;2024-03-07T09:58:42;22;22;
81989;PMS5003;71485;51.638;-0.182;2024-03-07T10:01:13;28;26;
81989;PMS5003;71485;51.638;-0.182;2024-03-07T10:03:33;25;25;
81989;PMS5003;71485;51.638;-0.182;2024-03-07T10:05:59;26;25;
81989;PMS5003;71485;51.638;-0.182;2024-03-07T10:08:26;28;27;
81989;PMS5003;71485;51.638;-0.182;2024-03-07T10:10:50;28;28;
81989;PMS5003;71485;51.638;-0.182;2024-03-07T10:13:16;29;29;
81989;PMS5003;71485;51.638;-0.182;2024-03-07T10:15:40;29;28;
81989;PMS5003;71485;51.638;-0.182;2024-03-07T10:18:06;30;29;
81989;PMS5003;71485;51.638;-0.182;2024-03-07T10:20:31;25;25;
81989;PMS5003;71485;51.638;-0.182;2024-03-07T10:22:59;25;25;
81989;PMS5003;71485;51.638;-0.182;2024-03-07T10:25:22;25;24;
81989;PMS5003;71485;51.638;-0.182;2024-03-07T10:27:50;28;28;
81989;PMS5003;71485;51.638;-0.182;2024-03-07T10:30:15;30;29;
81989;PMS5003;71485;51.638;-0.182;2024-03-07T10:32:38;31;27;
81989;PMS5003;71485;51.638;-0.182;2024-03-07T10:35:06;34;30;
81989;PMS5003;71485;51.638;-0.182;2024-03-07T10:37:29;30;29;
81989;PMS5003;71485;51.638;-0.182;2024-03-07T10:39:58;29;28;
81989;PMS5003;71485;51.638;-0.182;2024-03-07T10:42:19;26;25;
81989;PMS5003;71485;51.638;-0.182;2024-03-07T10:44:45;30;28;
81989;PMS5003;71485;51.638;-0.182;2024-03-07T10:47:15;27;26;
81989;PMS5003;71485;51.638;-0.182;2024-03-07T10:49:36;24;24;
81989;PMS5003;71485;51.638;-0.182;2024-03-07T10:52:06;28;27;
81989;PMS5003;71485;51.638;-0.182;2024-03-07T10:54:29;35;32;
81989;PMS5003;71485;51.638;-0.182;2024-03-07T10:56:54;25;23;
81989;PMS5003;71485;51.638;-0.182;2024-03-07T10:59:17;27;25;
81989;PMS5003;71485;51.638;-0.182;2024-03-07T11:01:45;26;24;
81989;PMS5003;71485;51.638;-0.182;2024-03-07T11:04:09;27;27;
81989;PMS5003;71485;51.638;-0.182;2024-03-07T11:06:34;27;26;
81989;PMS5003;71485;51.638;-0.182;2024-03-07T11:08:58;27;26;
81989;PMS5003;71485;51.638;-0.182;2024-03-07T11:11:26;30;26;
81989;PMS5003;71485;51.638;-0.182;2024-03-07T11:13:48;28;27;
81989;PMS5003;71485;51.638;-0.182;2024-03-07T11:16:14;28;27;
81989;PMS5003;71485;51.638;-0.182;2024-03-07T11:18:39;28;27;
81989;PMS5003;71485;51.638;-0.182;2024-03-07T11:21:05;28;27;
81989;PMS5003;71485;51.638;-0.182;2024-03-07T11:23:33;27;25;
81989;PMS5003;71485;51.638;-0.182;2024-03-07T11:26:02;25;25;
81989;PMS5003;71485;51.638;-0.182;2024-03-07T11:30:50;33;32;
81989;PMS5003;71485;51.638;-0.182;2024-03-07T11:33:11;35;35;
81989;PMS5003;71485;51.638;-0.182;2024-03-07T11:35:37;46;44;
81989;PMS5003;71485;51.638;-0.182;2024-03-07T11:38:05;49;47;
81989;PMS5003;71485;51.638;-0.182;2024-03-07T11:42:55;48;47;
81989;PMS5003;71485;51.638;-0.182;2024-03-07T11:45:20;54;53;
81989;PMS5003;71485;51.638;-0.182;2024-03-07T11:47:45;50;48;
81989;PMS5003;71485;51.638;-0.182;2024-03-07T11:50:10;51;50;
81989;PMS5003;71485;51.638;-0.182;2024-03-07T11:52:36;46;44;
81989;PMS5003;71485;51.638;-0.182;2024-03-07T11:55:01;47;46;
81989;PMS5003;71485;51.638;-0.182;2024-03-07T11:57:26;49;46;
81989;PMS5003;71485;51.638;-0.182;2024-03-07T11:59:52;48;47;
81989;PMS5003;71485;51.638;-0.182;2024-03-07T12:02:18;47;44;
81989;PMS5003;71485;51.638;-0.182;2024-03-07T12:04:44;46;45;
81989;PMS5003;71485;51.638;-0.182;2024-03-07T12:07:09;46;44;
81989;PMS5003;71485;51.638;-0.182;2024-03-07T12:09:35;46;43;
81989;PMS5003;71485;51.638;-0.182;2024-03-07T12:12:01;46;44;
81989;PMS5003;71485;51.638;-0.182;2024-03-07T12:14:26;48;47;
81989;PMS5003;71485;51.638;-0.182;2024-03-07T12:16:51;44;42;
81989;PMS5003;71485;51.638;-0.182;2024-03-07T12:19:17;44;43;
81989;PMS5003;71485;51.638;-0.182;2024-03-07T12:21:42;46;43;
81989;PMS5003;71485;51.638;-0.182;2024-03-07T12:24:11;45;44;
81989;PMS5003;71485;51.638;-0.182;2024-03-07T12:26:37;45;45;
81989;PMS5003;71485;51.638;-0.182;2024-03-07T12:31:24;41;40;
81989;PMS5003;71485;51.638;-0.182;2024-03-07T12:33:50;42;38;
81989;PMS5003;71485;51.638;-0.182;2024-03-07T12:36:16;43;41;
81989;PMS5003;71485;51.638;-0.182;2024-03-07T12:38:41;42;40;
81989;PMS5003;71485;51.638;-0.182;2024-03-07T12:41:07;36;36;
81989;PMS5003;71485;51.638;-0.182;2024-03-07T12:43:31;35;34;
81989;PMS5003;71485;51.638;-0.182;2024-03-07T12:45:56;41;40;
81989;PMS5003;71485;51.638;-0.182;2024-03-07T12:48:22;43;40;
81989;PMS5003;71485;51.638;-0.182;2024-03-07T12:50:49;39;38;
81989;PMS5003;71485;51.638;-0.182;2024-03-07T12:53:14;36;35;
81989;PMS5003;71485;51.638;-0.182;2024-03-07T12:55:38;38;38;
81989;PMS5003;71485;51.638;-0.182;2024-03-07T12:58:03;46;44;
81989;PMS5003;71485;51.638;-0.182;2024-03-07T13:00:28;52;45;
81989;PMS5003;71485;51.638;-0.182;2024-03-07T13:02:54;62;59;
81989;PMS5003;71485;51.638;-0.182;2024-03-07T13:05:21;49;47;
81989;PMS5003;71485;51.638;-0.182;2024-03-07T13:07:47;64;60;
81989;PMS5003;71485;51.638;-0.182;2024-03-07T13:10:11;62;55;
81989;PMS5003;71485;51.638;-0.182;2024-03-07T13:12:36;55;54;
81989;PMS5003;71485;51.638;-0.182;2024-03-07T13:15:01;61;60;
81989;PMS5003;71485;51.638;-0.182;2024-03-07T13:17:27;57;50;
81989;PMS5003;71485;51.638;-0.182;2024-03-07T13:19:52;60;57;
81989;PMS5003;71485;51.638;-0.182;2024-03-07T13:22:19;62;57;
81989;PMS5003;71485;51.638;-0.182;2024-03-07T13:24:45;56;56;
81989;PMS5003;71485;51.638;-0.182;2024-03-07T13:27:10;64;61;
81989;PMS5003;71485;51.638;-0.182;2024-03-07T13:29:35;52;48;
81989;PMS5003;71485;51.638;-0.182;2024-03-07T13:31:59;54;54;
81989;PMS5003;71485;51.638;-0.182;2024-03-07T13:34:24;53;51;
81989;PMS5003;71485;51.638;-0.182;2024-03-07T13:36:53;63;61;
81989;PMS5003;71485;51.638;-0.182;2024-03-07T13:39:16;46;44;
81989;PMS5003;71485;51.638;-0.182;2024-03-07T13:41:41;49;48;
81989;PMS5003;71485;51.638;-0.182;2024-03-07T13:44:06;51;49;
81989;PMS5003;71485;51.638;-0.182;2024-03-07T13:46:31;46;42;
81989;PMS5003;71485;51.638;-0.182;2024-03-07T13:48:57;48;47;
81989;PMS5003;71485;51.638;-0.182;2024-03-07T13:51:23;45;43;
81989;PMS5003;71485;51.638;-0.182;2024-03-07T13:53:49;43;43;
81989;PMS5003;71485;51.638;-0.182;2024-03-07T13:58:44;46;44;
81989;PMS5003;71485;51.638;-0.182;2024-03-07T14:03:43;46;43;
81989;PMS5003;71485;51.638;-0.182;2024-03-07T14:05:58;46;44;
81989;PMS5003;71485;51.638;-0.182;2024-03-07T14:08:28;46;43;
81989;PMS5003;71485;51.638;-0.182;2024-03-07T14:13:19;43;42;
81989;PMS5003;71485;51.638;-0.182;2024-03-07T14:25:26;45;41;
81989;PMS5003;71485;51.638;-0.182;2024-03-07T14:27:51;41;36;
81989;PMS5003;71485;51.638;-0.182;2024-03-07T14:30:16;36;35;
81989;PMS5003;71485;51.638;-0.182;2024-03-07T14:32:35;32;31;
81989;PMS5003;71485;51.638;-0.182;2024-03-07T14:35:03;38;34;
81989;PMS5003;71485;51.638;-0.182;2024-03-07T14:37:27;36;34;
81989;PMS5003;71485;51.638;-0.182;2024-03-07T14:39:52;35;34;
81989;PMS5003;71485;51.638;-0.182;2024-03-07T14:42:17;34;33;
81989;PMS5003;71485;51.638;-0.182;2024-03-07T14:44:43;30;29;
81989;PMS5003;71485;51.638;-0.182;2024-03-07T14:47:08;30;30;
81989;PMS5003;71485;51.638;-0.182;2024-03-07T14:49:36;29;28;
81989;PMS5003;71485;51.638;-0.182;2024-03-07T14:52:04;28;27;
81989;PMS5003;71485;51.638;-0.182;2024-03-07T14:54:25;30;29;
81989;PMS5003;71485;51.638;-0.182;2024-03-07T14:56:50;33;32;
81989;PMS5003;71485;51.638;-0.182;2024-03-07T14:59:16;37;34;
81989;PMS5003;71485;51.638;-0.182;2024-03-07T15:01:41;29;29;
81989;PMS5003;71485;51.638;-0.182;2024-03-07T15:04:07;28;27;
81989;PMS5003;71485;51.638;-0.182;2024-03-07T15:06:34;27;26;
81989;PMS5003;71485;51.638;-0.182;2024-03-07T15:08:58;29;28;
81989;PMS5003;71485;51.638;-0.182;2024-03-07T15:11:26;26;25;
81989;PMS5003;71485;51.638;-0.182;2024-03-07T15:13:49;31;30;
81989;PMS5003;71485;51.638;-0.182;2024-03-07T15:16:18;28;28;
81989;PMS5003;71485;51.638;-0.182;2024-03-07T15:18:39;27;26;
81989;PMS5003;71485;51.638;-0.182;2024-03-07T15:21:09;31;31;
81989;PMS5003;71485;51.638;-0.182;2024-03-07T15:23:29;29;27;
81989;PMS5003;71485;51.638;-0.182;2024-03-07T15:25:55;30;28;
81989;PMS5003;71485;51.638;-0.182;2024-03-07T15:28:19;27;27;
81989;PMS5003;71485;51.638;-0.182;2024-03-07T15:30:44;25;23;
81989;PMS5003;71485;51.638;-0.182;2024-03-07T15:33:10;26;26;
81989;PMS5003;71485;51.638;-0.182;2024-03-07T15:35:35;22;21;
81989;PMS5003;71485;51.638;-0.182;2024-03-07T15:38:03;25;24;
81989;PMS5003;71485;51.638;-0.182;2024-03-07T15:40:30;23;22;
81989;PMS5003;71485;51.638;-0.182;2024-03-07T15:42:51;27;26;
81989;PMS5003;71485;51.638;-0.182;2024-03-07T15:45:17;25;25;
81989;PMS5003;71485;51.638;-0.182;2024-03-07T15:47:43;22;22;
81989;PMS5003;71485;51.638;-0.182;2024-03-07T15:50:08;25;25;
81989;PMS5003;71485;51.638;-0.182;2024-03-07T15:52:33;25;24;
81989;PMS5003;71485;51.638;-0.182;2024-03-07T15:54:58;22;22;
81989;PMS5003;71485;51.638;-0.182;2024-03-07T15:57:23;26;24;
81989;PMS5003;71485;51.638;-0.182;2024-03-07T15:59:48;24;23;
81989;PMS5003;71485;51.638;-0.182;2024-03-07T16:02:15;24;22;
81989;PMS5003;71485;51.638;-0.182;2024-03-07T16:04:40;25;24;
81989;PMS5003;71485;51.638;-0.182;2024-03-07T16:07:05;23;22;
81989;PMS5003;71485;51.638;-0.182;2024-03-07T16:09:31;23;22;
81989;PMS5003;71485;51.638;-0.182;2024-03-07T16:11:57;25;23;
81989;PMS5003;71485;51.638;-0.182;2024-03-07T16:14:21;22;21;
81989;PMS5003;71485;51.638;-0.182;2024-03-07T16:16:47;24;23;
81989;PMS5003;71485;51.638;-0.182;2024-03-07T16:19:13;24;23;
81989;PMS5003;71485;51.638;-0.182;2024-03-07T16:21:37;22;20;
81989;PMS5003;71485;51.638;-0.182;2024-03-07T16:24:03;19;19;
81989;PMS5003;71485;51.638;-0.182;2024-03-07T16:26:33;21;21;
81989;PMS5003;71485;51.638;-0.182;2024-03-07T16:28:54;18;18;